PWSweather.com
Personal Weather Stations
Station Observations
REUBENS
Camas Prairie, Reubens, ID 83548

Camas PrairieReubens, ID 83548

Lat: 46.35417, Lon: -116.53167

Elevation: 3480

Station Type: Davis VantagePro 2

http://www.theobrienranch.com/wx/wx.htm

Latest ConditionsUpdated 6:15:00 AM PDT Saturday, Mar 25, 2017
Currently Today's Max Today's Min Today's Average
Temperature 37.8°F3.2°C 38.8°F3.8°C 36.0°F2.2°C 37.6°F3.1°C
Dew Point 32.8°F0.4°C 34.8°F1.6°C 32.5°F0.3°C 33.4°F0.8°C
Winds 4.6 mph WSW7.4 kmh WSW 12.7 mph W20.4 kmh W - 4.4 mph 7.1 kmh
Wind Gusts 5.8 mph9.3 kmh 16.1 mph25.9 kmh - -
Humidity 82% 88% 79% 85%
Pressure 30.21 in1023.0 mb 30.22 in1023.4 mb 30.17 in1021.7 mb -
Precipitation - 0.02 in0.5 mm - -
Hour Temp Dew Point Humidity Winds Wind Gusts Pressure Precip Precip Rate Daily Precip Total
06:15 AM 37.8°F3.2°C 32.8°F0.4°C 82% 4.6 mph WSW7.4 kmh WSW 5.8 mph9.3 kmh 30.21 in1023.0 mb - 0.00 in0.0 mm 0.02 in0.5 mm
06:00 AM 38.0°F3.3°C 33.0°F0.6°C 82% 3.5 mph WSW5.6 kmh WSW 3.5 mph5.6 kmh 30.21 in1023.0 mb - 0.00 in0.0 mm 0.02 in0.5 mm
05:45 AM 38.1°F3.4°C 33.4°F0.8°C 83% 3.5 mph WSW5.6 kmh WSW 4.6 mph7.4 kmh 30.21 in1023.0 mb - 0.00 in0.0 mm 0.02 in0.5 mm
05:30 AM 37.1°F2.8°C 33.0°F0.6°C 85% 4.6 mph WSW7.4 kmh WSW 4.6 mph7.4 kmh 30.21 in1023.0 mb - 0.00 in0.0 mm 0.02 in0.5 mm
05:15 AM 36.0°F2.2°C 32.8°F0.4°C 88% 4.6 mph WSW7.4 kmh WSW 4.6 mph7.4 kmh 30.22 in1023.4 mb - 0.00 in0.0 mm 0.02 in0.5 mm
05:00 AM 36.4°F2.4°C 32.7°F0.4°C 86% 5.8 mph WSW9.3 kmh WSW 6.9 mph11.1 kmh 30.21 in1023.0 mb - 0.00 in0.0 mm 0.02 in0.5 mm
04:45 AM 36.9°F2.7°C 33.1°F0.6°C 86% 5.8 mph WSW9.3 kmh WSW 5.8 mph9.3 kmh 30.20 in1022.7 mb - 0.00 in0.0 mm 0.02 in0.5 mm
04:30 AM 37.5°F3.1°C 33.7°F0.9°C 86% 2.3 mph WSW3.7 kmh WSW 4.6 mph7.4 kmh 30.20 in1022.7 mb - 0.00 in0.0 mm 0.02 in0.5 mm
04:15 AM 36.3°F2.4°C 32.8°F0.4°C 87% 2.3 mph WSW3.7 kmh WSW 3.5 mph5.6 kmh 30.21 in1023.0 mb - 0.00 in0.0 mm 0.02 in0.5 mm
04:00 AM 37.4°F3.0°C 33.0°F0.6°C 84% 4.6 mph WSW7.4 kmh WSW 4.6 mph7.4 kmh 30.20 in1022.7 mb - 0.00 in0.0 mm 0.02 in0.5 mm
03:45 AM 37.5°F3.1°C 33.4°F0.8°C 85% 4.6 mph WSW7.4 kmh WSW 5.8 mph9.3 kmh 30.20 in1022.7 mb - 0.00 in0.0 mm 0.02 in0.5 mm
03:30 AM 37.9°F3.3°C 33.5°F0.8°C 84% 6.9 mph WSW11.1 kmh WSW 6.9 mph11.1 kmh 30.20 in1022.7 mb - 0.00 in0.0 mm 0.02 in0.5 mm
03:15 AM 38.2°F3.4°C 34.1°F1.2°C 85% 4.6 mph SW7.4 kmh SW 5.8 mph9.3 kmh 30.20 in1022.7 mb - 0.00 in0.0 mm 0.02 in0.5 mm
03:00 AM 38.0°F3.3°C 34.5°F1.4°C 87% 8.1 mph SW13.0 kmh SW 9.2 mph14.8 kmh 30.20 in1022.7 mb - 0.00 in0.0 mm 0.02 in0.5 mm
02:45 AM 37.7°F3.2°C 34.2°F1.2°C 87% 9.2 mph WSW14.8 kmh WSW 11.5 mph18.5 kmh 30.20 in1022.7 mb - 0.00 in0.0 mm 0.02 in0.5 mm
02:30 AM 38.1°F3.4°C 34.6°F1.4°C 87% 11.5 mph WSW18.5 kmh WSW 11.5 mph18.5 kmh 30.20 in1022.7 mb - 0.00 in0.0 mm 0.02 in0.5 mm
02:15 AM 38.8°F3.8°C 34.7°F1.5°C 85% 12.7 mph W20.4 kmh W 16.1 mph25.9 kmh 30.19 in1022.4 mb - 0.00 in0.0 mm 0.02 in0.5 mm
02:00 AM 38.8°F3.8°C 34.7°F1.5°C 85% 5.8 mph W9.3 kmh W 5.8 mph9.3 kmh 30.18 in1022.0 mb - 0.00 in0.0 mm 0.02 in0.5 mm
01:45 AM 38.7°F3.7°C 34.8°F1.6°C 86% 4.6 mph WSW7.4 kmh WSW 5.8 mph9.3 kmh 30.18 in1022.0 mb - 0.02 in0.5 mm 0.02 in0.5 mm
01:30 AM 36.7°F2.6°C 33.5°F0.8°C 88% 2.3 mph W3.7 kmh W 3.5 mph5.6 kmh 30.18 in1022.0 mb - 0.00 in0.0 mm 0.00 in0.0 mm
01:15 AM 37.0°F2.8°C 33.2°F0.7°C 86% Calm Calm -- 30.17 in1021.7 mb - 0.00 in0.0 mm 0.00 in0.0 mm
01:00 AM 37.1°F2.8°C 33.3°F0.7°C 86% Calm Calm -- 30.18 in1022.0 mb - 0.00 in0.0 mm 0.00 in0.0 mm
12:45 AM 37.3°F2.9°C 32.9°F0.5°C 84% Calm Calm -- 30.18 in1022.0 mb - 0.00 in0.0 mm 0.00 in0.0 mm
12:30 AM 37.4°F3.0°C 32.7°F0.4°C 83% 3.5 mph W5.6 kmh W 3.5 mph5.6 kmh 30.18 in1022.0 mb - 0.00 in0.0 mm 0.00 in0.0 mm
12:15 AM 37.8°F3.2°C 32.5°F0.3°C 81% Calm Calm -- 30.18 in1022.0 mb - 0.00 in0.0 mm 0.00 in0.0 mm
12:00 AM 38.6°F3.7°C 32.7°F0.4°C 79% Calm Calm -- 30.17 in1021.7 mb - 0.00 in0.0 mm 0.00 in0.0 mm